PWSweather.com
Personal Weather Stations
Station Observations
FAUSKE
Nordland, Norway, FauskeNO 8200

Nordland, NorwayFauskeNO 8200

Lat: 67.2607586, Lon: 15.4114204

Elevation: 40

Station Type: Davis Vantage PRO2

http://www.bjornli.net/weather.html

Latest ConditionsUpdated 12:30:18 PM GMT+01:01 Thursday, Jul 31, 2014
Currently Today's Max Today's Min Today's Average
Temperature 66.2°F19.0°C 69.5°F20.8°C 57.2°F14.0°C 61.3°F16.3°C
Dew Point 58.4°F14.7°C 59.7°F15.4°C 56.4°F13.6°C 57.8°F14.3°C
Winds Calm Calm 3.0 mph E4.8 kmh E - 0.3 mph 0.5 kmh
Wind Gusts 1.0 mph1.6 kmh 5.0 mph8.0 kmh - -
Humidity 76% 97% 64% 89%
Pressure 29.36 in994.2 mb 29.42 in996.3 mb 29.36 in994.2 mb -
Hour Temp Dew Point Humidity Winds Wind Gusts Pressure Precip Precip Rate Daily Precip Total
12:30 PM 66.2°F19.0°C 58.4°F14.7°C 76% Calm Calm 1.0 mph1.6 kmh 29.36 in994.2 mb 0.00 in0.0 mm 0.00 in/hr0.0 mm/hr 0.12 in3.0 mm
12:10 PM 65.8°F18.8°C 57.3°F14.1°C 74% Calm Calm 5.0 mph8.0 kmh 29.36 in994.2 mb 0.00 in0.0 mm 0.00 in/hr0.0 mm/hr 0.12 in3.0 mm
12:00 PM 66.6°F19.2°C 57.7°F14.3°C 73% Calm Calm -- 29.36 in994.2 mb 0.00 in0.0 mm 0.00 in/hr0.0 mm/hr 0.12 in3.0 mm
11:40 AM 69.2°F20.7°C 56.5°F13.6°C 64% Calm Calm 5.0 mph8.0 kmh 29.36 in994.2 mb 0.00 in0.0 mm 0.00 in/hr0.0 mm/hr 0.12 in3.0 mm
11:30 AM 69.2°F20.7°C 58.6°F14.8°C 69% 3.0 mph SE4.8 kmh SE 5.0 mph8.0 kmh 29.36 in994.2 mb 0.00 in0.0 mm 0.00 in/hr0.0 mm/hr 0.12 in3.0 mm
11:10 AM 69.5°F20.8°C 58.1°F14.5°C 67% Calm Calm 2.0 mph3.2 kmh 29.37 in994.6 mb 0.00 in0.0 mm 0.00 in/hr0.0 mm/hr 0.12 in3.0 mm
11:00 AM 68.9°F20.5°C 57.9°F14.4°C 68% Calm Calm 1.0 mph1.6 kmh 29.37 in994.6 mb 0.00 in0.0 mm 0.00 in/hr0.0 mm/hr 0.12 in3.0 mm
10:40 AM 68.1°F20.1°C 57.6°F14.2°C 69% 1.0 mph ESE1.6 kmh ESE 5.0 mph8.0 kmh 29.38 in994.9 mb 0.00 in0.0 mm 0.00 in/hr0.0 mm/hr 0.12 in3.0 mm
10:30 AM 68.1°F20.1°C 58.7°F14.8°C 72% 2.0 mph ESE3.2 kmh ESE 4.0 mph6.4 kmh 29.38 in994.9 mb 0.00 in0.0 mm 0.00 in/hr0.0 mm/hr 0.12 in3.0 mm
10:10 AM 67.5°F19.7°C 56.6°F13.7°C 68% 2.0 mph E3.2 kmh E 4.0 mph6.4 kmh 29.38 in994.9 mb 0.00 in0.0 mm 0.00 in/hr0.0 mm/hr 0.12 in3.0 mm
10:00 AM 67.4°F19.7°C 58.1°F14.5°C 72% Calm Calm -- 29.38 in994.9 mb 0.00 in0.0 mm 0.00 in/hr0.0 mm/hr 0.12 in3.0 mm
09:40 AM 66.4°F19.1°C 58.6°F14.8°C 76% 1.0 mph E1.6 kmh E 5.0 mph8.0 kmh 29.38 in994.9 mb 0.00 in0.0 mm 0.00 in/hr0.0 mm/hr 0.12 in3.0 mm
09:30 AM 66.0°F18.9°C 58.6°F14.8°C 77% 1.0 mph E1.6 kmh E 2.0 mph3.2 kmh 29.39 in995.3 mb 0.00 in0.0 mm 0.00 in/hr0.0 mm/hr 0.12 in3.0 mm
09:10 AM 65.1°F18.4°C 58.1°F14.5°C 78% Calm Calm 4.0 mph6.4 kmh 29.40 in995.6 mb 0.01 in0.3 mm 0.00 in/hr0.0 mm/hr 0.12 in3.0 mm
09:00 AM 64.9°F18.3°C 58.9°F14.9°C 81% Calm Calm -- 29.40 in995.6 mb 0.01 in0.3 mm 0.00 in/hr0.0 mm/hr 0.12 in3.0 mm
08:40 AM 63.7°F17.6°C 59.4°F15.2°C 86% Calm Calm 3.0 mph4.8 kmh 29.39 in995.3 mb 0.01 in0.3 mm 0.00 in/hr0.0 mm/hr 0.12 in3.0 mm
08:30 AM 62.9°F17.2°C 59.3°F15.2°C 88% Calm Calm -- 29.39 in995.3 mb 0.01 in0.3 mm 0.03 in/hr0.8 mm/hr 0.12 in3.0 mm
08:10 AM 61.4°F16.3°C 59.7°F15.4°C 94% Calm Calm 3.0 mph4.8 kmh 29.39 in995.3 mb 0.00 in0.0 mm 0.00 in/hr0.0 mm/hr 0.11 in2.8 mm
08:00 AM 60.1°F15.6°C 58.7°F14.8°C 95% 3.0 mph E4.8 kmh E 3.0 mph4.8 kmh 29.39 in995.3 mb 0.00 in0.0 mm 0.00 in/hr0.0 mm/hr 0.11 in2.8 mm
07:40 AM 59.5°F15.3°C 58.4°F14.7°C 96% Calm Calm -- 29.40 in995.6 mb 0.00 in0.0 mm 0.00 in/hr0.0 mm/hr 0.11 in2.8 mm
07:30 AM 59.2°F15.1°C 58.4°F14.7°C 97% Calm Calm -- 29.40 in995.6 mb 0.00 in0.0 mm 0.00 in/hr0.0 mm/hr 0.11 in2.8 mm
07:10 AM 58.6°F14.8°C 57.8°F14.3°C 97% Calm Calm -- 29.40 in995.6 mb 0.00 in0.0 mm 0.00 in/hr0.0 mm/hr 0.11 in2.8 mm
07:00 AM 58.5°F14.7°C 57.7°F14.3°C 97% Calm Calm -- 29.41 in995.9 mb 0.00 in0.0 mm 0.00 in/hr0.0 mm/hr 0.11 in2.8 mm
06:40 AM 57.9°F14.4°C 57.1°F13.9°C 97% Calm Calm 3.0 mph4.8 kmh 29.41 in995.9 mb 0.02 in0.5 mm 0.00 in/hr0.0 mm/hr 0.11 in2.8 mm
06:30 AM 57.7°F14.3°C 56.9°F13.8°C 97% Calm Calm -- 29.41 in995.9 mb 0.02 in0.5 mm 0.00 in/hr0.0 mm/hr 0.11 in2.8 mm
06:10 AM 57.5°F14.2°C 56.7°F13.7°C 97% Calm Calm -- 29.41 in995.9 mb 0.05 in1.3 mm 0.00 in/hr0.0 mm/hr 0.11 in2.8 mm
06:00 AM 57.4°F14.1°C 56.6°F13.7°C 97% Calm Calm -- 29.41 in995.9 mb 0.05 in1.3 mm 0.00 in/hr0.0 mm/hr 0.11 in2.8 mm
05:40 AM 57.2°F14.0°C 56.4°F13.6°C 97% Calm Calm 2.0 mph3.2 kmh 29.41 in995.9 mb 0.05 in1.3 mm 0.12 in/hr3.0 mm/hr 0.11 in2.8 mm
05:30 AM 57.5°F14.2°C 56.7°F13.7°C 97% Calm Calm -- 29.41 in995.9 mb 0.03 in0.8 mm 0.03 in/hr0.8 mm/hr 0.09 in2.3 mm
05:10 AM 58.1°F14.5°C 57.3°F14.1°C 97% Calm Calm -- 29.42 in996.3 mb 0.02 in0.5 mm 0.00 in/hr0.0 mm/hr 0.08 in2.0 mm
05:00 AM 58.1°F14.5°C 57.3°F14.1°C 97% Calm Calm -- 29.42 in996.3 mb 0.02 in0.5 mm 0.00 in/hr0.0 mm/hr 0.08 in2.0 mm
04:40 AM 58.1°F14.5°C 57.3°F14.1°C 97% Calm Calm -- 29.41 in995.9 mb 0.07 in1.8 mm 0.00 in/hr0.0 mm/hr 0.08 in2.0 mm
04:30 AM 58.1°F14.5°C 57.3°F14.1°C 97% Calm Calm -- 29.41 in995.9 mb 0.07 in1.8 mm 0.03 in/hr0.8 mm/hr 0.08 in2.0 mm
04:10 AM 58.1°F14.5°C 57.3°F14.1°C 97% Calm Calm -- 29.41 in995.9 mb 0.06 in1.5 mm 0.00 in/hr0.0 mm/hr 0.07 in1.8 mm
04:00 AM 58.2°F14.6°C 57.4°F14.1°C 97% Calm Calm -- 29.41 in995.9 mb 0.06 in1.5 mm 0.03 in/hr0.8 mm/hr 0.07 in1.8 mm
03:40 AM 58.6°F14.8°C 57.8°F14.3°C 97% Calm Calm -- 29.41 in995.9 mb 0.04 in1.0 mm 0.24 in/hr6.1 mm/hr 0.05 in1.3 mm
03:30 AM 58.6°F14.8°C 57.8°F14.3°C 97% Calm Calm -- 29.41 in995.9 mb 0.00 in0.0 mm 0.00 in/hr0.0 mm/hr 0.01 in0.3 mm
03:10 AM 58.4°F14.7°C 57.6°F14.2°C 97% Calm Calm -- 29.41 in995.9 mb 0.00 in0.0 mm 0.00 in/hr0.0 mm/hr 0.01 in0.3 mm
03:00 AM 58.3°F14.6°C 57.5°F14.2°C 97% Calm Calm -- 29.41 in995.9 mb 0.00 in0.0 mm 0.00 in/hr0.0 mm/hr 0.01 in0.3 mm
02:40 AM 58.5°F14.7°C 57.4°F14.1°C 96% Calm Calm -- 29.41 in995.9 mb 0.00 in0.0 mm 0.00 in/hr0.0 mm/hr 0.01 in0.3 mm
02:30 AM 58.5°F14.7°C 57.7°F14.3°C 97% Calm Calm -- 29.41 in995.9 mb 0.00 in0.0 mm 0.00 in/hr0.0 mm/hr 0.01 in0.3 mm
02:10 AM 58.5°F14.7°C 57.4°F14.1°C 96% Calm Calm -- 29.41 in995.9 mb 0.00 in0.0 mm 0.00 in/hr0.0 mm/hr 0.01 in0.3 mm
02:00 AM 58.6°F14.8°C 57.5°F14.2°C 96% Calm Calm -- 29.41 in995.9 mb 0.00 in0.0 mm 0.00 in/hr0.0 mm/hr 0.01 in0.3 mm
01:40 AM 58.8°F14.9°C 57.7°F14.3°C 96% Calm Calm -- 29.41 in995.9 mb 0.00 in0.0 mm 0.00 in/hr0.0 mm/hr 0.01 in0.3 mm
01:30 AM 58.9°F14.9°C 57.8°F14.3°C 96% Calm Calm -- 29.41 in995.9 mb 0.00 in0.0 mm 0.00 in/hr0.0 mm/hr 0.01 in0.3 mm
01:10 AM 59.2°F15.1°C 58.1°F14.5°C 96% Calm Calm -- 29.41 in995.9 mb 0.00 in0.0 mm 0.00 in/hr0.0 mm/hr 0.01 in0.3 mm
01:00 AM 59.4°F15.2°C 58.3°F14.6°C 96% Calm Calm -- 29.41 in995.9 mb 0.00 in0.0 mm 0.00 in/hr0.0 mm/hr 0.01 in0.3 mm
12:40 AM 59.3°F15.2°C 58.2°F14.6°C 96% Calm Calm -- 29.41 in995.9 mb 0.01 in0.3 mm 0.00 in/hr0.0 mm/hr 0.01 in0.3 mm
12:30 AM 59.0°F15.0°C 57.9°F14.4°C 96% Calm Calm -- 29.41 in995.9 mb 0.01 in0.3 mm 0.00 in/hr0.0 mm/hr 0.01 in0.3 mm
12:10 AM 58.8°F14.9°C 57.4°F14.1°C 95% Calm Calm -- 29.41 in995.9 mb 0.01 in0.3 mm 0.00 in/hr0.0 mm/hr 0.01 in0.3 mm
12:00 AM 59.0°F15.0°C 57.6°F14.2°C 95% Calm Calm -- 29.41 in995.9 mb 0.01 in0.3 mm 0.00 in/hr0.0 mm/hr 0.01 in0.3 mm